createdAt,value
2019-01-30T00:01:43.487Z,3.00
2019-01-30T00:04:12.818Z,2.30
2019-01-30T00:06:42.093Z,2.60
2019-01-30T00:09:11.423Z,2.40
2019-01-30T00:11:40.873Z,2.50
2019-01-30T00:14:10.137Z,2.73
2019-01-30T00:16:39.425Z,3.37
2019-01-30T00:19:08.996Z,2.23
2019-01-30T00:21:38.338Z,2.40
2019-01-30T00:24:07.532Z,2.42
2019-01-30T00:26:36.890Z,2.97
2019-01-30T00:29:06.593Z,2.37
2019-01-30T00:31:35.909Z,2.27
2019-01-30T00:34:05.505Z,2.35
2019-01-30T00:36:35.362Z,2.93
2019-01-30T00:39:07.471Z,2.55
2019-01-30T00:41:36.980Z,1.92
2019-01-30T00:44:06.314Z,2.00
2019-01-30T00:46:35.885Z,2.70
2019-01-30T00:49:05.173Z,2.23
2019-01-30T00:51:34.830Z,2.43
2019-01-30T00:54:04.099Z,2.10
2019-01-30T00:56:33.395Z,2.77
2019-01-30T00:59:02.601Z,2.13
2019-01-30T01:01:31.816Z,2.10
2019-01-30T01:04:01.042Z,2.50
2019-01-30T01:06:30.341Z,2.37
2019-01-30T01:08:59.861Z,2.65
2019-01-30T01:11:29.731Z,2.20
2019-01-30T01:13:59.021Z,2.87
2019-01-30T01:16:28.572Z,1.75
2019-01-30T01:18:57.874Z,2.60
2019-01-30T01:21:27.382Z,2.65
2019-01-30T01:23:56.742Z,2.60
2019-01-30T01:26:26.281Z,3.47
2019-01-30T01:28:55.836Z,2.15
2019-01-30T01:31:25.384Z,2.60
2019-01-30T01:33:55.025Z,2.20
2019-01-30T01:36:24.341Z,1.83
2019-01-30T01:38:53.888Z,2.35
2019-01-30T01:41:23.157Z,3.27
2019-01-30T01:43:52.789Z,2.17
2019-01-30T01:46:22.032Z,2.40
2019-01-30T01:48:51.571Z,2.23
2019-01-30T01:51:21.182Z,2.10
2019-01-30T01:53:50.409Z,2.03
2019-01-30T01:56:19.793Z,3.10
2019-01-30T01:58:49.616Z,1.90
2019-01-30T02:01:18.987Z,2.10
2019-01-30T02:03:49.869Z,2.23
2019-01-30T02:06:19.624Z,2.42
2019-01-30T02:08:49.427Z,1.85
2019-01-30T02:11:19.546Z,2.80
2019-01-30T02:13:49.270Z,2.25
2019-01-30T02:16:18.942Z,2.00
2019-01-30T02:18:49.038Z,2.60
2019-01-30T02:21:18.548Z,3.00
2019-01-30T02:23:48.092Z,2.87
2019-01-30T02:26:17.634Z,2.55
2019-01-30T02:28:47.017Z,2.50
2019-01-30T02:31:16.232Z,2.03
2019-01-30T02:33:46.091Z,3.10
2019-01-30T02:36:16.934Z,3.17
2019-01-30T02:38:46.374Z,2.20
2019-01-30T02:41:16.085Z,2.67
2019-01-30T02:43:45.804Z,3.25
2019-01-30T02:46:16.797Z,2.70
2019-01-30T02:49:04.137Z,3.00
2019-01-30T02:51:33.879Z,2.42
2019-01-30T02:54:03.586Z,4.05
2019-01-30T02:56:33.340Z,2.47
2019-01-30T02:59:03.442Z,2.35
2019-01-30T03:01:34.772Z,3.60
2019-01-30T03:04:04.633Z,2.90
2019-01-30T03:06:36.113Z,2.90
2019-01-30T03:09:07.306Z,4.70
2019-01-30T03:11:37.258Z,5.05
2019-01-30T03:14:06.772Z,5.65
2019-01-30T03:16:36.312Z,5.55
2019-01-30T03:19:05.785Z,5.50
2019-01-30T03:21:35.346Z,6.17
2019-01-30T03:24:04.877Z,8.60
2019-01-30T03:26:34.487Z,5.75
2019-01-30T03:29:04.021Z,7.35
2019-01-30T03:31:33.579Z,7.30
2019-01-30T03:34:03.333Z,6.55
2019-01-30T03:36:32.887Z,7.17
2019-01-30T03:39:04.033Z,5.78
2019-01-30T03:41:33.641Z,7.20
2019-01-30T03:44:03.217Z,5.45
2019-01-30T03:46:32.823Z,7.60
2019-01-30T03:49:02.393Z,4.65
2019-01-30T03:51:31.641Z,6.50
2019-01-30T03:54:01.209Z,6.97
2019-01-30T03:56:30.733Z,8.40
2019-01-30T03:59:00.352Z,7.72
2019-01-30T04:01:29.670Z,8.00
2019-01-30T04:03:59.231Z,7.03
2019-01-30T04:06:30.227Z,6.92
2019-01-30T04:08:59.807Z,7.97
2019-01-30T04:11:29.360Z,8.38
2019-01-30T04:14:00.639Z,7.42
2019-01-30T04:16:30.490Z,6.70
2019-01-30T04:18:59.782Z,8.58
2019-01-30T04:21:29.340Z,7.45
2019-01-30T04:23:58.609Z,7.83
2019-01-30T04:26:28.128Z,6.90
2019-01-30T04:28:57.507Z,6.55
2019-01-30T04:31:37.608Z,7.15
2019-01-30T04:34:01.285Z,6.87
2019-01-30T04:36:30.949Z,7.78
2019-01-30T04:39:00.630Z,6.25
2019-01-30T04:41:30.168Z,5.90
2019-01-30T04:43:59.685Z,5.35
2019-01-30T04:46:29.230Z,5.72
2019-01-30T04:48:58.866Z,4.10
2019-01-30T04:51:28.441Z,4.70
2019-01-30T04:53:57.895Z,4.27
2019-01-30T04:56:27.192Z,5.10
2019-01-30T04:58:56.786Z,5.45
2019-01-30T05:01:26.177Z,5.40
2019-01-30T05:03:55.525Z,5.40
2019-01-30T05:06:24.897Z,5.50
2019-01-30T05:08:56.153Z,4.33
2019-01-30T05:11:26.136Z,5.67
2019-01-30T05:13:57.114Z,4.87
2019-01-30T05:16:26.876Z,5.28
2019-01-30T05:18:56.290Z,4.63
2019-01-30T05:21:25.637Z,6.07
2019-01-30T05:23:55.162Z,5.90
2019-01-30T05:26:25.879Z,6.40
2019-01-30T05:28:55.354Z,5.63
2019-01-30T05:31:24.714Z,6.80
2019-01-30T05:33:54.044Z,6.70
2019-01-30T05:36:26.018Z,6.73
2019-01-30T05:38:56.725Z,6.00
2019-01-30T05:41:35.098Z,7.37
2019-01-30T05:44:00.286Z,6.45
2019-01-30T05:46:29.887Z,6.43
2019-01-30T05:48:59.957Z,6.70
2019-01-30T05:51:29.410Z,6.83
2019-01-30T05:54:17.132Z,7.40
2019-01-30T06:00:28.929Z,6.80
2019-01-30T06:02:55.634Z,7.60
2019-01-30T06:05:25.015Z,7.77
2019-01-30T06:07:54.932Z,7.23
2019-01-30T06:10:24.288Z,7.00
2019-01-30T06:12:53.515Z,7.53
2019-01-30T06:15:23.051Z,6.57
2019-01-30T06:17:52.385Z,6.77
2019-01-30T06:20:24.203Z,6.75
2019-01-30T06:22:53.730Z,6.83
2019-01-30T06:25:22.997Z,7.90
2019-01-30T06:27:52.671Z,6.13
2019-01-30T06:30:22.274Z,6.70
2019-01-30T06:32:51.834Z,6.90
2019-01-30T06:35:21.290Z,6.43
2019-01-30T06:37:51.240Z,6.87
2019-01-30T06:40:25.962Z,6.00
2019-01-30T06:42:56.074Z,5.35
2019-01-30T06:45:25.593Z,6.70
2019-01-30T06:47:55.125Z,6.10
2019-01-30T06:50:24.438Z,6.43
2019-01-30T06:52:53.832Z,7.70
2019-01-30T06:55:23.186Z,10.15
2019-01-30T06:57:52.792Z,9.53
2019-01-30T07:00:24.333Z,9.18
2019-01-30T07:02:55.566Z,9.33
2019-01-30T07:05:25.308Z,8.10
2019-01-30T07:07:55.141Z,8.70
2019-01-30T07:10:26.640Z,9.00
2019-01-30T07:12:56.276Z,8.88
2019-01-30T07:15:26.108Z,7.80
2019-01-30T07:17:55.570Z,8.93
2019-01-30T07:20:25.428Z,7.47
2019-01-30T07:22:55.002Z,8.73
2019-01-30T07:25:24.612Z,6.65
2019-01-30T07:27:54.198Z,7.70
2019-01-30T07:30:31.822Z,7.60
2019-01-30T07:33:01.144Z,6.73
2019-01-30T07:35:30.501Z,6.90
2019-01-30T07:37:59.816Z,7.30
2019-01-30T07:40:29.114Z,7.67
2019-01-30T07:42:58.768Z,6.75
2019-01-30T07:45:29.226Z,7.58
2019-01-30T07:47:58.507Z,6.00
2019-01-30T07:50:27.789Z,6.90
2019-01-30T07:52:58.894Z,8.70
2019-01-30T07:55:28.523Z,7.07
2019-01-30T07:58:00.232Z,7.00
2019-01-30T08:00:31.412Z,9.10
2019-01-30T08:03:01.393Z,7.65
2019-01-30T08:05:31.123Z,6.35
2019-01-30T08:08:00.413Z,8.33
2019-01-30T08:10:29.981Z,6.30
2019-01-30T08:12:59.261Z,6.77
2019-01-30T08:15:28.888Z,6.72
2019-01-30T08:17:58.172Z,6.03
2019-01-30T08:20:27.414Z,6.50
2019-01-30T08:22:56.933Z,7.73
2019-01-30T08:25:26.333Z,6.50
2019-01-30T08:27:56.267Z,7.03
2019-01-30T08:30:28.029Z,6.40
2019-01-30T08:33:04.733Z,5.40
2019-01-30T08:35:30.724Z,6.85
2019-01-30T08:38:01.194Z,6.20
2019-01-30T08:40:31.309Z,6.60
2019-01-30T08:43:00.939Z,5.50
2019-01-30T08:45:31.970Z,6.15
2019-01-30T08:48:01.299Z,7.07
2019-01-30T08:50:30.965Z,6.00
2019-01-30T08:53:01.526Z,5.75
2019-01-30T08:55:32.337Z,5.95
2019-01-30T08:58:02.242Z,5.87
2019-01-30T09:00:31.868Z,5.60
2019-01-30T09:03:01.335Z,5.90
2019-01-30T09:05:30.902Z,5.78
2019-01-30T09:08:00.198Z,5.63
2019-01-30T09:10:30.921Z,5.80
2019-01-30T09:13:00.536Z,5.67
2019-01-30T09:15:30.438Z,2.77
2019-01-30T09:18:00.173Z,5.67
2019-01-30T09:20:29.799Z,5.92
2019-01-30T09:22:59.506Z,5.47
2019-01-30T09:25:32.530Z,2.25
2019-01-30T09:28:02.388Z,4.73
2019-01-30T09:30:36.859Z,6.65
2019-01-30T09:33:08.243Z,5.97
2019-01-30T09:35:37.779Z,4.65
2019-01-30T09:38:07.417Z,4.45
2019-01-30T09:40:37.299Z,6.72
2019-01-30T09:43:07.260Z,5.65
2019-01-30T09:45:36.469Z,5.90
2019-01-30T09:48:08.000Z,5.47
2019-01-30T09:50:37.543Z,6.58
2019-01-30T09:53:06.985Z,5.40
2019-01-30T09:55:36.359Z,4.90
2019-01-30T09:58:05.766Z,6.60
2019-01-30T10:00:36.456Z,6.53
2019-01-30T10:03:06.270Z,6.00
2019-01-30T10:05:35.680Z,4.00
2019-01-30T10:08:13.584Z,6.07
2019-01-30T10:10:43.152Z,6.55
2019-01-30T10:13:12.451Z,6.67
2019-01-30T10:15:43.881Z,7.97
2019-01-30T10:18:14.917Z,7.58
2019-01-30T10:20:47.074Z,6.53
2019-01-30T10:23:16.548Z,6.70
2019-01-30T10:25:45.922Z,6.70
2019-01-30T10:28:16.989Z,5.83
2019-01-30T10:30:47.090Z,7.10
2019-01-30T10:33:16.821Z,7.30
2019-01-30T10:35:46.582Z,5.50
2019-01-30T10:38:17.067Z,6.57
2019-01-30T10:40:46.428Z,7.30
2019-01-30T10:43:15.696Z,6.27
2019-01-30T10:45:44.968Z,6.23
2019-01-30T10:48:14.767Z,6.57
2019-01-30T10:50:44.080Z,8.17
2019-01-30T10:53:13.480Z,8.30
2019-01-30T10:55:42.763Z,7.57
2019-01-30T10:58:15.350Z,6.77
2019-01-30T11:00:49.675Z,6.40
2019-01-30T11:03:19.448Z,7.50
2019-01-30T11:05:48.865Z,8.30
2019-01-30T11:08:18.306Z,6.83
2019-01-30T11:10:47.705Z,7.47
2019-01-30T11:13:18.270Z,8.03
2019-01-30T11:15:47.627Z,7.30
2019-01-30T11:18:17.330Z,8.43
2019-01-30T11:20:46.621Z,8.33
2019-01-30T11:23:16.304Z,8.83
2019-01-30T11:25:48.381Z,9.17
2019-01-30T11:28:18.210Z,8.80
2019-01-30T11:30:47.485Z,9.20
2019-01-30T11:33:17.373Z,9.45
2019-01-30T11:35:46.720Z,9.73
2019-01-30T11:38:16.058Z,9.27
2019-01-30T11:40:45.364Z,7.27
2019-01-30T11:43:14.705Z,10.23
2019-01-30T11:45:45.022Z,8.98
2019-01-30T11:48:14.306Z,10.67
2019-01-30T11:50:44.164Z,10.33
2019-01-30T11:53:13.483Z,11.23
2019-01-30T11:55:43.111Z,11.73
2019-01-30T11:58:12.713Z,9.80
2019-01-30T12:00:45.653Z,9.77
2019-01-30T12:03:14.954Z,10.60
2019-01-30T12:05:46.380Z,12.33
2019-01-30T12:08:15.924Z,9.10
2019-01-30T12:10:45.232Z,11.80
2019-01-30T12:13:14.825Z,12.20
2019-01-30T12:15:44.402Z,10.38
2019-01-30T12:18:14.102Z,12.05
2019-01-30T12:20:43.882Z,12.60
2019-01-30T12:23:13.619Z,10.70
2019-01-30T12:25:43.589Z,11.10
2019-01-30T12:28:12.899Z,10.40
2019-01-30T12:30:42.460Z,10.40
2019-01-30T12:33:12.053Z,10.13
2019-01-30T12:35:41.339Z,10.27
2019-01-30T12:38:10.553Z,10.37
2019-01-30T12:40:40.141Z,10.00
2019-01-30T12:43:09.453Z,10.80
2019-01-30T12:45:38.792Z,10.97
2019-01-30T12:48:27.548Z,10.72
2019-01-30T12:51:02.378Z,12.15
2019-01-30T12:53:34.748Z,14.85
2019-01-30T12:56:04.033Z,15.97
2019-01-30T12:58:33.532Z,15.60
2019-01-30T13:01:02.889Z,14.50
2019-01-30T13:03:32.201Z,14.13
2019-01-30T13:06:01.519Z,17.70
2019-01-30T13:08:33.473Z,16.67
2019-01-30T13:11:02.890Z,17.97
2019-01-30T13:13:32.274Z,17.60
2019-01-30T13:16:01.906Z,15.68
2019-01-30T13:18:31.341Z,16.37
2019-01-30T13:21:00.912Z,14.87
2019-01-30T13:23:30.381Z,16.05
2019-01-30T13:25:59.597Z,17.00
2019-01-30T13:28:29.419Z,14.23
2019-01-30T13:30:58.985Z,16.37
2019-01-30T13:33:28.266Z,18.53
2019-01-30T13:35:57.838Z,13.85
2019-01-30T13:38:30.624Z,21.23
2019-01-30T13:40:59.909Z,16.63
2019-01-30T13:43:29.521Z,19.20
2019-01-30T13:46:05.201Z,21.60
2019-01-30T13:48:31.599Z,15.60
2019-01-30T13:51:01.111Z,16.70
2019-01-30T13:53:30.462Z,17.30
2019-01-30T13:55:59.772Z,17.70
2019-01-30T13:58:29.272Z,21.30
2019-01-30T14:00:58.646Z,19.43
2019-01-30T14:03:27.853Z,19.50
2019-01-30T14:05:57.528Z,17.20
2019-01-30T14:08:27.092Z,20.97
2019-01-30T14:10:56.689Z,21.25
2019-01-30T14:13:26.078Z,25.03
2019-01-30T14:15:55.574Z,21.17
2019-01-30T14:18:25.019Z,19.43
2019-01-30T14:20:54.356Z,18.70
2019-01-30T14:23:23.737Z,20.17
2019-01-30T14:25:53.309Z,20.10
2019-01-30T14:28:22.573Z,19.27
2019-01-30T14:30:52.079Z,22.97
2019-01-30T14:33:21.418Z,17.30
2019-01-30T14:35:51.125Z,17.50
2019-01-30T14:38:20.683Z,17.60
2019-01-30T14:40:50.426Z,18.05
2019-01-30T14:43:19.678Z,18.07
2019-01-30T14:45:51.336Z,16.50
2019-01-30T14:48:22.601Z,15.10
2019-01-30T14:50:51.665Z,15.87
2019-01-30T14:53:29.224Z,13.73
2019-01-30T14:55:58.656Z,14.83
2019-01-30T14:58:27.954Z,13.80
2019-01-30T15:00:57.230Z,13.77
2019-01-30T15:03:26.620Z,12.33
2019-01-30T15:05:55.937Z,12.67
2019-01-30T15:08:28.792Z,12.70
2019-01-30T15:10:58.047Z,11.70
2019-01-30T15:13:27.640Z,12.47
2019-01-30T15:15:56.982Z,11.03
2019-01-30T15:18:26.256Z,12.40
2019-01-30T15:20:55.690Z,10.00
2019-01-30T15:23:25.118Z,11.23
2019-01-30T15:25:54.406Z,9.93
2019-01-30T15:28:23.700Z,11.00
2019-01-30T15:30:52.920Z,11.47
2019-01-30T15:33:22.255Z,10.77
2019-01-30T15:35:51.993Z,11.00
2019-01-30T15:38:21.455Z,10.27
2019-01-30T15:40:50.680Z,11.50
2019-01-30T15:43:20.071Z,9.27
2019-01-30T15:45:49.644Z,10.15
2019-01-30T15:48:19.018Z,10.57
2019-01-30T15:50:48.320Z,9.10
2019-01-30T15:53:20.107Z,9.00
2019-01-30T15:55:52.396Z,10.33
2019-01-30T15:58:21.706Z,7.20
2019-01-30T16:01:15.589Z,9.45
2019-01-30T16:03:45.190Z,9.23
2019-01-30T16:06:14.741Z,8.78
2019-01-30T16:08:44.050Z,7.83
2019-01-30T16:11:13.641Z,8.20
2019-01-30T16:13:42.972Z,8.47
2019-01-30T16:16:12.308Z,8.80
2019-01-30T16:18:41.582Z,9.30
2019-01-30T16:21:10.870Z,9.03
2019-01-30T16:23:40.257Z,9.80
2019-01-30T16:26:09.569Z,8.13
2019-01-30T16:28:38.844Z,8.43
2019-01-30T16:31:08.210Z,8.10
2019-01-30T16:33:37.585Z,8.63
2019-01-30T16:36:06.808Z,7.10
2019-01-30T16:38:36.106Z,9.50
2019-01-30T16:41:05.826Z,6.07
2019-01-30T16:43:38.196Z,8.50
2019-01-30T16:46:07.658Z,8.77
2019-01-30T16:48:37.260Z,7.67
2019-01-30T16:51:06.863Z,6.70
2019-01-30T16:53:36.170Z,7.97
2019-01-30T16:56:05.792Z,10.35
2019-01-30T16:58:35.135Z,8.30
2019-01-30T17:01:04.561Z,6.57
2019-01-30T17:03:33.898Z,8.63
2019-01-30T17:06:07.607Z,8.00
2019-01-30T17:08:34.685Z,7.33
2019-01-30T17:11:04.361Z,7.03
2019-01-30T17:13:33.786Z,5.47
2019-01-30T17:16:03.538Z,6.67
2019-01-30T17:18:35.851Z,6.67
2019-01-30T17:21:07.491Z,7.93
2019-01-30T17:23:40.434Z,7.10
2019-01-30T17:26:10.548Z,6.80
2019-01-30T17:28:42.976Z,4.73
2019-01-30T17:31:22.102Z,5.43
2019-01-30T17:33:51.501Z,5.80
2019-01-30T17:36:21.115Z,6.40
2019-01-30T17:38:51.066Z,6.30
2019-01-30T17:41:24.734Z,4.30
2019-01-30T17:43:54.310Z,4.77
2019-01-30T17:46:23.846Z,6.93
2019-01-30T17:48:53.638Z,7.70
2019-01-30T17:51:23.166Z,3.83
2019-01-30T17:53:52.970Z,6.20
2019-01-30T17:56:22.369Z,7.00
2019-01-30T17:58:51.857Z,7.17
2019-01-30T18:01:21.257Z,6.97
2019-01-30T18:03:50.649Z,9.87
2019-01-30T18:06:29.649Z,8.57
2019-01-30T18:08:53.443Z,6.70
2019-01-30T18:11:23.056Z,7.80
2019-01-30T18:13:59.708Z,8.07
2019-01-30T18:16:29.055Z,7.67
2019-01-30T18:18:58.318Z,4.45
2019-01-30T18:21:36.539Z,2.60
2019-01-30T18:24:06.004Z,7.67
2019-01-30T18:26:39.180Z,5.22
2019-01-30T18:29:08.650Z,8.87
2019-01-30T18:31:38.447Z,2.50
2019-01-30T18:34:11.061Z,8.87
2019-01-30T18:36:41.452Z,8.23
2019-01-30T18:39:11.339Z,7.90
2019-01-30T18:41:43.543Z,7.73
2019-01-30T18:44:13.675Z,5.70
2019-01-30T18:46:44.244Z,6.03
2019-01-30T18:49:16.466Z,7.25
2019-01-30T18:51:46.237Z,4.70
2019-01-30T18:54:15.845Z,9.55
2019-01-30T18:56:45.622Z,8.03
2019-01-30T18:59:15.092Z,7.83
2019-01-30T19:01:44.442Z,8.80
2019-01-30T19:04:14.375Z,9.65
2019-01-30T19:06:52.082Z,8.48
2019-01-30T19:09:16.613Z,8.37
2019-01-30T19:11:45.927Z,6.23
2019-01-30T19:14:15.450Z,3.80
2019-01-30T19:16:44.708Z,6.50
2019-01-30T19:19:14.562Z,5.78
2019-01-30T19:21:43.970Z,4.50
2019-01-30T19:24:13.563Z,4.70
2019-01-30T19:26:43.021Z,5.37
2019-01-30T19:29:12.666Z,4.97
2019-01-30T19:31:42.044Z,4.20
2019-01-30T19:34:11.749Z,5.07
2019-01-30T19:36:41.083Z,9.57
2019-01-30T19:39:13.912Z,4.87
2019-01-30T19:41:45.280Z,6.83
2019-01-30T19:44:14.827Z,3.75
2019-01-30T19:46:44.417Z,4.17
2019-01-30T19:49:14.402Z,6.42
2019-01-30T19:51:44.856Z,6.90
2019-01-30T19:54:14.194Z,2.55
2019-01-30T19:56:44.245Z,5.40
2019-01-30T19:59:17.721Z,6.72
2019-01-30T20:01:45.938Z,2.72
2019-01-30T20:04:16.077Z,6.75
2019-01-30T20:06:46.161Z,4.03
2019-01-30T20:09:18.339Z,6.55
2019-01-30T20:11:48.500Z,4.37
2019-01-30T20:14:18.138Z,4.90
2019-01-30T20:16:47.711Z,4.03
2019-01-30T20:19:17.334Z,4.10
2019-01-30T20:21:46.967Z,2.90
2019-01-30T20:24:16.316Z,5.12
2019-01-30T20:26:45.744Z,1.95
2019-01-30T20:29:15.846Z,3.10
2019-01-30T20:31:46.227Z,5.10
2019-01-30T20:34:15.918Z,2.00
2019-01-30T20:36:45.955Z,1.43
2019-01-30T20:39:15.495Z,4.75
2019-01-30T20:41:45.623Z,3.30
2019-01-30T20:44:15.672Z,4.37
2019-01-30T20:46:45.322Z,3.47
2019-01-30T20:49:14.693Z,2.47
2019-01-30T20:51:47.803Z,6.78
2019-01-30T20:54:17.443Z,4.20
2019-01-30T20:56:47.205Z,4.35
2019-01-30T20:59:16.815Z,5.67
2019-01-30T21:01:46.380Z,4.35
2019-01-30T21:04:17.540Z,4.95
2019-01-30T21:06:47.414Z,4.50
2019-01-30T21:09:16.976Z,4.62
2019-01-30T21:11:46.671Z,4.25
2019-01-30T21:14:16.344Z,4.00
2019-01-30T21:16:45.910Z,3.30
2019-01-30T21:19:17.120Z,3.02
2019-01-30T21:21:47.768Z,3.98
2019-01-30T21:24:18.600Z,4.40
2019-01-30T21:26:54.862Z,4.15
2019-01-30T21:29:24.702Z,2.92
2019-01-30T21:31:59.816Z,2.90
2019-01-30T21:34:30.234Z,3.40
2019-01-30T21:37:14.697Z,2.30
2019-01-30T21:39:44.568Z,3.45
2019-01-30T21:42:14.287Z,3.60
2019-01-30T21:44:44.187Z,3.72
2019-01-30T21:47:13.841Z,3.70
2019-01-30T21:49:43.539Z,3.25
2019-01-30T21:52:13.311Z,2.30
2019-01-30T21:54:47.219Z,3.40
2019-01-30T21:57:19.759Z,2.42
2019-01-30T21:59:49.564Z,4.20
2019-01-30T22:02:23.624Z,3.92
2019-01-30T22:04:53.755Z,2.55
2019-01-30T22:07:27.645Z,3.12
2019-01-30T22:09:58.536Z,3.60
2019-01-30T22:12:28.519Z,2.70
2019-01-30T22:14:58.168Z,2.77
2019-01-30T22:17:28.073Z,2.20
2019-01-30T22:19:57.850Z,2.98
2019-01-30T22:22:29.350Z,2.67
2019-01-30T22:24:59.114Z,1.82
2019-01-30T22:27:28.736Z,2.25
2019-01-30T22:29:58.345Z,2.42
2019-01-30T22:32:27.722Z,2.02
2019-01-30T22:34:57.032Z,2.60
2019-01-30T22:37:26.654Z,2.85
2019-01-30T22:39:56.293Z,2.70
2019-01-30T22:42:25.685Z,2.30
2019-01-30T22:44:55.313Z,3.02
2019-01-30T22:47:24.726Z,0.95
2019-01-30T22:49:54.398Z,3.17
2019-01-30T22:52:23.995Z,3.20
2019-01-30T22:54:53.718Z,3.22
2019-01-30T22:57:23.636Z,2.67
2019-01-30T22:59:53.570Z,3.58
2019-01-30T23:02:23.511Z,2.75
2019-01-30T23:05:05.303Z,3.40
2019-01-30T23:08:22.651Z,2.95
2019-01-30T23:11:25.500Z,2.55
2019-01-30T23:14:16.227Z,2.90
2019-01-30T23:17:28.670Z,2.60
2019-01-30T23:20:35.306Z,3.20
2019-01-30T23:23:44.557Z,2.30
2019-01-30T23:27:01.194Z,2.10
2019-01-30T23:30:13.714Z,3.12
2019-01-30T23:33:15.264Z,2.80
2019-01-30T23:36:16.189Z,1.98
2019-01-30T23:39:31.741Z,2.37
2019-01-30T23:42:27.640Z,2.47
2019-01-30T23:45:13.980Z,2.27
2019-01-30T23:48:00.609Z,1.82
2019-01-30T23:51:06.013Z,2.00
2019-01-30T23:53:58.957Z,0.50
2019-01-30T23:56:55.901Z,1.25
2019-01-30T23:59:46.050Z,1.00
